Time,TemperatureF,DewpointF,PressureIn,WindDirection,WindDirectionDegrees,WindSpeedMPH,WindSpeedGustMPH,Humidity,HourlyPrecipIn,Conditions,Clouds,dailyrainin,SoftwareType,DateUTC
2012-11-08 00:00:00,61.8,26.5,29.80,SE,135,1.0,3.0,26,0.00,,,0.00,WUHU216DAVISVP2,2012-11-08 08:00:00,
2012-11-08 00:30:00,61.5,26.3,29.80,ESE,113,1.0,3.0,26,0.00,,,0.00,WUHU216DAVISVP2,2012-11-08 08:30:00,
2012-11-08 01:00:00,60.6,26.4,29.80,SE,135,0.0,2.0,27,0.00,,,0.00,WUHU216DAVISVP2,2012-11-08 09:00:00,
2012-11-08 01:30:00,60.1,26.9,29.80,SE,135,1.0,4.0,28,0.00,,,0.00,WUHU216DAVISVP2,2012-11-08 09:30:00,
2012-11-08 02:00:00,63.2,26.8,29.78,SE,135,1.0,4.0,25,0.00,,,0.00,WUHU216DAVISVP2,2012-11-08 10:00:00,
2012-11-08 02:30:00,62.9,26.5,29.79,SE,135,1.0,4.0,25,0.00,,,0.00,WUHU216DAVISVP2,2012-11-08 10:30:00,
2012-11-08 03:00:00,63.5,27.0,29.79,SE,135,2.0,4.0,25,0.00,,,0.00,WUHU216DAVISVP2,2012-11-08 11:00:00,
2012-11-08 03:30:00,63.5,27.0,29.78,SE,135,2.0,4.0,25,0.00,,,0.00,WUHU216DAVISVP2,2012-11-08 11:30:00,
2012-11-08 04:00:00,63.0,26.6,29.78,SE,135,1.0,4.0,25,0.00,,,0.00,WUHU216DAVISVP2,2012-11-08 12:00:00,
2012-11-08 04:30:00,62.8,27.4,29.78,ESE,113,1.0,3.0,26,0.00,,,0.00,WUHU216DAVISVP2,2012-11-08 12:30:00,
2012-11-08 05:00:00,62.8,27.4,29.78,SE,135,1.0,3.0,26,0.00,,,0.00,WUHU216DAVISVP2,2012-11-08 13:00:00,
2012-11-08 05:30:00,60.8,26.6,29.78,SE,135,1.0,3.0,27,0.00,,,0.00,WUHU216DAVISVP2,2012-11-08 13:30:00,
2012-11-08 06:00:00,61.1,26.8,29.79,SE,135,1.0,3.0,27,0.00,,,0.00,WUHU216DAVISVP2,2012-11-08 14:00:00,
2012-11-08 06:30:00,60.7,27.4,29.81,SSE,158,2.0,6.0,28,0.00,,,0.00,WUHU216DAVISVP2,2012-11-08 14:30:00,
2012-11-08 07:00:00,63.4,27.9,29.82,SE,135,3.0,7.0,26,0.00,,,0.00,WUHU216DAVISVP2,2012-11-08 15:00:00,
2012-11-08 07:30:00,67.4,28.3,29.83,SSE,158,3.0,8.0,23,0.00,,,0.00,WUHU216DAVISVP2,2012-11-08 15:30:00,
2012-11-08 08:00:00,69.4,28.9,29.83,SSE,158,4.0,7.0,22,0.00,,,0.00,WUHU216DAVISVP2,2012-11-08 16:00:00,
2012-11-08 08:30:00,73.1,29.6,29.83,SSE,158,3.0,5.0,20,0.00,,,0.00,WUHU216DAVISVP2,2012-11-08 16:30:00,
2012-11-08 09:00:00,76.5,29.8,29.83,South,180,4.0,8.0,18,0.00,,,0.00,WUHU216DAVISVP2,2012-11-08 17:00:00,
2012-11-08 09:30:00,78.9,28.9,29.83,SSW,203,3.0,8.0,16,0.00,,,0.00,WUHU216DAVISVP2,2012-11-08 17:30:00,
2012-11-08 10:00:00,81.4,29.3,29.83,SSW,203,3.0,6.0,15,0.00,,,0.00,WUHU216DAVISVP2,2012-11-08 18:00:00,
2012-11-08 10:30:00,81.5,29.4,29.81,SW,225,4.0,8.0,15,0.00,,,0.00,WUHU216DAVISVP2,2012-11-08 18:30:00,
2012-11-08 11:00:00,82.4,30.1,29.80,West,270,3.0,8.0,15,0.00,,,0.00,WUHU216DAVISVP2,2012-11-08 19:00:00,
2012-11-08 11:30:00,82.8,30.4,29.79,West,270,4.0,11.0,15,0.00,,,0.00,WUHU216DAVISVP2,2012-11-08 19:30:00,
2012-11-08 12:00:00,83.5,29.3,29.77,West,270,3.0,9.0,14,0.00,,,0.00,WUHU216DAVISVP2,2012-11-08 20:00:00,
2012-11-08 12:30:00,83.6,27.5,29.76,WNW,293,3.0,10.0,13,0.00,,,0.00,WUHU216DAVISVP2,2012-11-08 20:30:00,
2012-11-08 13:00:00,83.6,27.5,29.75,WNW,293,3.0,8.0,13,0.00,,,0.00,WUHU216DAVISVP2,2012-11-08 21:00:00,
2012-11-08 13:30:00,84.4,28.2,29.74,WNW,293,2.0,5.0,13,0.00,,,0.00,WUHU216DAVISVP2,2012-11-08 21:30:00,
2012-11-08 14:00:00,82.8,28.7,29.74,WNW,293,2.0,5.0,14,0.00,,,0.00,WUHU216DAVISVP2,2012-11-08 22:00:00,
2012-11-08 14:30:00,81.7,27.8,29.75,West,270,3.0,8.0,14,0.00,,,0.00,WUHU216DAVISVP2,2012-11-08 22:30:00,
2012-11-08 15:00:00,81.1,30.6,29.74,NW,315,2.0,9.0,16,0.00,,,0.00,WUHU216DAVISVP2,2012-11-08 23:00:00,
2012-11-08 15:30:00,78.4,35.2,29.75,NW,315,3.0,11.0,21,0.00,,,0.00,WUHU216DAVISVP2,2012-11-08 23:30:00,
2012-11-08 16:00:00,77.1,35.3,29.76,NW,315,2.0,6.0,22,0.00,,,0.00,WUHU216DAVISVP2,2012-11-09 00:00:00,
2012-11-08 16:30:00,75.9,36.5,29.76,SE,135,0.0,5.0,24,0.00,,,0.00,WUHU216DAVISVP2,2012-11-09 00:30:00,
2012-11-08 17:00:00,74.8,38.6,29.76,WNW,293,1.0,6.0,27,0.00,,,0.00,WUHU216DAVISVP2,2012-11-09 01:00:00,
2012-11-08 17:30:00,73.0,40.6,29.76,NW,315,0.0,2.0,31,0.00,,,0.00,WUHU216DAVISVP2,2012-11-09 01:30:00,
2012-11-08 18:00:00,71.4,41.6,29.77,SE,135,0.0,2.0,34,0.00,,,0.00,WUHU216DAVISVP2,2012-11-09 02:00:00,
2012-11-08 18:30:00,71.2,41.4,29.77,SE,135,0.0,3.0,34,0.00,,,0.00,WUHU216DAVISVP2,2012-11-09 02:30:00,
2012-11-08 19:00:00,72.0,38.9,29.78,SSE,158,1.0,3.0,30,0.00,,,0.00,WUHU216DAVISVP2,2012-11-09 03:00:00,
2012-11-08 19:30:00,70.3,40.6,29.77,SE,135,1.0,5.0,34,0.00,,,0.00,WUHU216DAVISVP2,2012-11-09 03:30:00,
2012-11-08 20:00:00,69.7,40.1,29.76,SE,135,2.0,5.0,34,0.00,,,0.00,WUHU216DAVISVP2,2012-11-09 04:00:00,
2012-11-08 20:30:00,67.9,40.7,29.76,ESE,113,1.0,3.0,37,0.00,,,0.00,WUHU216DAVISVP2,2012-11-09 04:30:00,
2012-11-08 21:00:00,67.7,41.2,29.76,SE,135,2.0,6.0,38,0.00,,,0.00,WUHU216DAVISVP2,2012-11-09 05:00:00,
2012-11-08 21:30:00,66.2,41.2,29.76,SE,135,2.0,4.0,40,0.00,,,0.00,WUHU216DAVISVP2,2012-11-09 05:30:00,
2012-11-08 22:00:00,66.0,41.0,29.76,SE,135,2.0,5.0,40,0.00,,,0.00,WUHU216DAVISVP2,2012-11-09 06:00:00,
2012-11-08 22:30:00,66.9,41.1,29.75,SE,135,3.0,6.0,39,0.00,,,0.00,WUHU216DAVISVP2,2012-11-09 06:30:00,
2012-11-08 23:00:00,65.6,40.6,29.75,SE,135,2.0,6.0,40,0.00,,,0.00,WUHU216DAVISVP2,2012-11-09 07:00:00,
2012-11-08 23:30:00,64.9,40.6,29.75,SE,135,3.0,10.0,41,0.00,,,0.00,WUHU216DAVISVP2,2012-11-09 07:30:00,